Terminal Aerodrome Forecast
Issued by NWS Portland, OR

Home | Current Version | Previous Version | Text Only | Print | Product List | Glossary On
Versions: 1 2 3 4 5 6 7 8 9 10 11 12 13 14 15 16 17 18 19 20 21 22
000
FTUS46 KPQR 102326
TAFEUG
TAF
KEUG 102326Z 1100/1124 23010KT P6SM -SHRA SCT025 BKN045 BKN060
     FM110800 19007KT P6SM -SHRA BKN025 OVC040
     FM111200 19008KT 5SM -SHRA BR BKN015 OVC030
     FM112000 21010G18KT P6SM -SHRA SCT020 BKN035 BKN050=

USA.gov is the U.S. government's official web portal to all federal, state and local government web resources and services.